Time;durP1;ratioP1;P1;durP2;ratioP2;P2;SDS_P1;SDS_P2;PMS_P1;PMS_P2;Temp;Humidity;BMP_temperature;BMP_pressure;BME280_temperature;BME280_humidity;BME280_pressure;Samples;Min_cycle;Max_cycle;Signal;HPM_P1;HPM_P2
2023/06/26 00:04:23;;;;;;;6.10;5.57;;;24.60;63.40;;;;;;10323332;28;20117;-61
2023/06/26 00:09:23;;;;;;;7.07;6.40;;;24.50;63.40;;;;;;10322967;28;20185;-61
2023/06/26 00:14:25;;;;;;;6.82;6.15;;;24.50;63.50;;;;;;10324461;28;20054;-60
2023/06/26 00:19:26;;;;;;;6.72;4.85;;;24.50;63.40;;;;;;10312846;28;20023;-61
2023/06/26 00:24:27;;;;;;;5.55;5.05;;;24.50;63.40;;;;;;10314097;28;20431;-60
2023/06/26 00:29:27;;;;;;;6.18;5.57;;;24.50;63.40;;;;;;10323546;28;20153;-60
2023/06/26 00:34:28;;;;;;;6.13;5.53;;;24.50;63.40;;;;;;10315924;28;20065;-60
2023/06/26 00:39:29;;;;;;;6.60;6.00;;;24.50;63.60;;;;;;10316725;28;20094;-60
2023/06/26 00:44:29;;;;;;;6.53;5.90;;;24.50;63.60;;;;;;10318366;28;20521;-60
2023/06/26 00:49:30;;;;;;;7.15;5.63;;;24.50;63.60;;;;;;10322676;28;20141;-59
2023/06/26 00:54:31;;;;;;;6.55;5.95;;;24.50;63.60;;;;;;10321636;28;20042;-60
2023/06/26 00:59:32;;;;;;;6.50;5.90;;;24.50;63.60;;;;;;10321108;28;20019;-60
2023/06/26 01:04:33;;;;;;;5.65;5.15;;;24.50;63.60;;;;;;10321969;28;20034;-60
2023/06/26 01:09:34;;;;;;;6.43;5.80;;;24.50;63.60;;;;;;10304762;28;20072;-61
2023/06/26 01:14:36;;;;;;;6.47;5.88;;;24.50;63.60;;;;;;10294348;28;20085;-61
2023/06/26 01:19:37;;;;;;;7.38;6.68;;;24.50;63.60;;;;;;10311188;28;20029;-60
2023/06/26 01:24:39;;;;;;;6.43;5.82;;;24.50;63.60;;;;;;10303925;28;20037;-60
2023/06/26 01:29:42;;;;;;;7.25;5.80;;;24.50;63.60;;;;;;10320311;28;20396;-59
2023/06/26 01:34:44;;;;;;;6.45;5.90;;;24.50;63.60;;;;;;10319777;28;20022;-60
2023/06/26 01:39:45;;;;;;;6.35;5.75;;;24.50;63.50;;;;;;10319621;28;20616;-61
2023/06/26 01:44:46;;;;;;;6.63;6.00;;;24.50;63.60;;;;;;10317924;28;20168;-61
2023/06/26 01:50:09;;;;;;;7.25;5.57;;;24.50;63.50;;;;;;10319056;28;20026;-61
2023/06/26 01:55:35;;;;;;;6.63;5.93;;;24.50;63.50;;;;;;10319013;28;20050;-61
2023/06/26 02:00:37;;;;;;;6.50;5.90;;;24.50;63.50;;;;;;10319241;28;20034;-59
2023/06/26 02:05:38;;;;;;;6.30;5.70;;;24.50;63.40;;;;;;10315440;28;20378;-61
2023/06/26 02:10:38;;;;;;;6.47;5.88;;;24.40;63.20;;;;;;10316311;28;20017;-61
2023/06/26 02:15:39;;;;;;;7.05;6.43;;;24.50;63.30;;;;;;10325197;28;20122;-61
2023/06/26 02:20:40;;;;;;;6.15;5.55;;;24.40;63.20;;;;;;10326705;28;20478;-61
2023/06/26 02:25:41;;;;;;;6.68;5.55;;;24.50;63.20;;;;;;10314043;28;20122;-60
2023/06/26 02:30:41;;;;;;;6.00;5.40;;;24.40;63.20;;;;;;10328245;28;20097;-59
2023/06/26 02:35:42;;;;;;;6.10;5.60;;;24.40;63.10;;;;;;10316065;28;20042;-60
2023/06/26 02:40:43;;;;;;;5.32;4.82;;;24.40;63.10;;;;;;10326467;28;20511;-60
2023/06/26 02:45:43;;;;;;;7.60;6.03;;;24.50;63.10;;;;;;10310198;28;20125;-61
2023/06/26 02:50:46;;;;;;;5.93;5.32;;;24.40;63.10;;;;;;10327386;28;20093;-60
2023/06/26 02:55:47;;;;;;;6.07;5.50;;;24.40;63.00;;;;;;10327629;28;20057;-60
2023/06/26 03:00:48;;;;;;;6.18;5.03;;;24.40;63.00;;;;;;10324841;28;20022;-60
2023/06/26 03:05:49;;;;;;;7.00;5.78;;;24.40;63.00;;;;;;10321111;28;20031;-60
2023/06/26 03:10:49;;;;;;;6.50;5.90;;;24.40;63.00;;;;;;10326941;28;20057;-61
2023/06/26 03:15:50;;;;;;;7.32;6.63;;;24.40;63.10;;;;;;10327827;28;20037;-59
2023/06/26 03:20:52;;;;;;;6.32;5.63;;;24.40;63.10;;;;;;10327733;28;20097;-59
2023/06/26 03:25:53;;;;;;;6.75;5.70;;;24.40;63.10;;;;;;10325936;28;20370;-60
2023/06/26 03:30:54;;;;;;;6.07;5.47;;;24.40;63.10;;;;;;10325998;28;20080;-60
2023/06/26 03:35:55;;;;;;;5.57;5.03;;;24.40;63.10;;;;;;10327011;28;20055;-61
2023/06/26 03:40:55;;;;;;;7.40;5.05;;;24.40;63.10;;;;;;10325712;28;20018;-60
2023/06/26 03:45:56;;;;;;;5.47;4.90;;;24.40;63.20;;;;;;10325476;28;20117;-59
2023/06/26 03:50:58;;;;;;;6.03;5.43;;;24.40;63.10;;;;;;10325218;28;20019;-61
2023/06/26 03:55:59;;;;;;;5.57;4.93;;;24.40;63.10;;;;;;10325732;28;20456;-60
2023/06/26 04:01:00;;;;;;;6.38;5.40;;;24.40;63.10;;;;;;10325259;28;20032;-61
2023/06/26 04:06:00;;;;;;;5.95;5.22;;;24.40;63.10;;;;;;10324692;28;20103;-61
2023/06/26 04:11:01;;;;;;;5.53;4.85;;;24.40;63.10;;;;;;10324543;28;20023;-60
2023/06/26 04:16:02;;;;;;;5.55;5.05;;;24.40;63.20;;;;;;10324206;28;20022;-60
2023/06/26 04:21:11;;;;;;;11.48;6.20;;;24.40;63.20;;;;;;10324133;28;20030;-60
2023/06/26 04:26:14;;;;;;;5.95;5.32;;;24.40;63.20;;;;;;10307909;28;20125;-61
2023/06/26 04:31:15;;;;;;;5.55;4.43;;;24.40;63.20;;;;;;10302304;28;20488;-60
2023/06/26 04:36:16;;;;;;;5.57;4.97;;;24.40;63.30;;;;;;10318884;28;20061;-61
2023/06/26 04:41:17;;;;;;;6.50;4.82;;;24.30;63.30;;;;;;10324599;28;20019;-61
2023/06/26 04:46:17;;;;;;;6.13;4.82;;;24.30;63.30;;;;;;10323965;28;20026;-60
2023/06/26 04:51:20;;;;;;;6.97;5.00;;;24.30;63.30;;;;;;10323152;28;20018;-60
2023/06/26 04:56:21;;;;;;;5.40;4.72;;;24.30;63.30;;;;;;10322725;28;20314;-59
2023/06/26 05:01:22;;;;;;;6.53;4.93;;;24.30;63.20;;;;;;10322590;28;20105;-60
2023/06/26 05:06:23;;;;;;;5.15;4.53;;;24.40;63.30;;;;;;10293043;28;20031;-61
2023/06/26 05:11:25;;;;;;;5.32;4.82;;;24.30;63.20;;;;;;10313085;28;20022;-59
2023/06/26 05:16:26;;;;;;;5.05;4.53;;;24.40;63.90;;;;;;10314281;28;20014;-61
2023/06/26 05:21:27;;;;;;;7.00;5.03;;;24.30;63.20;;;;;;10321973;28;20046;-61
2023/06/26 05:26:28;;;;;;;6.20;4.85;;;24.40;63.30;;;;;;10322132;28;20039;-60
2023/06/26 05:31:33;;;;;;;6.28;5.05;;;24.40;63.30;;;;;;10322493;28;20050;-59
2023/06/26 05:36:35;;;;;;;5.65;4.70;;;24.40;63.30;;;;;;10318282;28;20156;-59
2023/06/26 05:41:36;;;;;;;5.10;4.43;;;24.40;63.30;;;;;;10320823;28;20495;-58
2023/06/26 05:46:36;;;;;;;6.18;4.60;;;24.40;63.20;;;;;;10322204;28;20030;-60
2023/06/26 05:51:37;;;;;;;6.25;5.35;;;24.40;63.20;;;;;;10308766;28;20486;-60
2023/06/26 05:56:38;;;;;;;5.30;4.50;;;24.40;63.20;;;;;;10321803;28;20113;-59
2023/06/26 06:01:39;;;;;;;5.88;4.20;;;24.40;63.10;;;;;;10322069;28;20421;-60
2023/06/26 06:06:40;;;;;;;6.72;4.47;;;24.40;63.00;;;;;;10321616;28;20129;-59
2023/06/26 06:11:41;;;;;;;7.38;5.07;;;24.40;63.00;;;;;;10304381;28;20019;-60
2023/06/26 06:16:41;;;;;;;5.57;4.30;;;24.40;62.90;;;;;;10315410;28;20022;-60
2023/06/26 06:21:43;;;;;;;6.40;4.50;;;24.40;62.90;;;;;;10316298;28;20034;-60
2023/06/26 06:26:43;;;;;;;6.78;4.90;;;24.40;62.90;;;;;;10317804;28;20038;-61
2023/06/26 06:31:44;;;;;;;6.03;3.90;;;24.40;62.70;;;;;;10321199;28;20022;-59
2023/06/26 06:36:45;;;;;;;6.03;4.55;;;24.40;62.70;;;;;;10320823;28;20506;-60
2023/06/26 06:41:45;;;;;;;4.60;3.85;;;24.40;62.70;;;;;;10321206;28;20014;-61
2023/06/26 06:46:46;;;;;;;7.28;4.75;;;24.40;62.60;;;;;;10320838;28;20431;-60
2023/06/26 06:51:47;;;;;;;5.20;3.67;;;24.40;62.60;;;;;;10320051;28;20049;-61
2023/06/26 06:56:47;;;;;;;5.95;4.10;;;24.40;62.70;;;;;;10303924;28;20026;-60
2023/06/26 07:01:48;;;;;;;5.53;4.22;;;24.40;62.70;;;;;;10325399;28;20027;-60
2023/06/26 07:06:49;;;;;;;5.88;4.10;;;24.50;62.60;;;;;;10326729;28;20088;-61
2023/06/26 07:11:49;;;;;;;5.10;3.92;;;24.50;62.50;;;;;;10327369;28;20049;-61
2023/06/26 07:16:50;;;;;;;4.20;3.80;;;24.50;62.40;;;;;;10320868;28;20149;-59
2023/06/26 07:21:51;;;;;;;5.45;3.97;;;24.50;62.40;;;;;;10327599;28;20114;-60
2023/06/26 07:26:51;;;;;;;4.28;3.58;;;24.50;62.40;;;;;;10323779;28;20117;-60
2023/06/26 07:31:52;;;;;;;5.47;4.45;;;24.60;62.40;;;;;;10327343;28;20018;-60
2023/06/26 07:36:53;;;;;;;4.45;3.58;;;24.60;62.40;;;;;;10297309;28;20164;-60
2023/06/26 07:41:54;;;;;;;5.05;3.22;;;24.50;62.40;;;;;;10325087;28;20023;-60
2023/06/26 07:46:54;;;;;;;5.88;4.07;;;24.60;62.30;;;;;;10326753;28;20381;-59
2023/06/26 07:51:55;;;;;;;4.35;3.70;;;24.60;62.40;;;;;;10326915;28;20021;-60
2023/06/26 07:56:58;;;;;;;6.63;3.90;;;24.60;62.30;;;;;;10325650;28;20030;-60
2023/06/26 08:01:59;;;;;;;5.97;4.07;;;24.60;62.30;;;;;;10325040;28;20425;-59
2023/06/26 08:07:01;;;;;;;4.38;3.33;;;24.60;62.30;;;;;;10319700;28;20371;-60
2023/06/26 08:12:01;;;;;;;4.50;3.22;;;24.60;62.30;;;;;;10320135;28;20069;-60
2023/06/26 08:17:02;;;;;;;4.82;3.30;;;24.60;62.30;;;;;;10322037;28;20022;-60
2023/06/26 08:22:03;;;;;;;4.50;3.67;;;24.60;62.30;;;;;;10322899;28;20033;-60
2023/06/26 08:27:04;;;;;;;4.55;3.40;;;24.60;62.30;;;;;;10325357;28;20347;-59
2023/06/26 08:32:05;;;;;;;5.22;3.28;;;24.60;62.40;;;;;;10325030;28;20105;-60
2023/06/26 08:37:08;;;;;;;5.82;4.40;;;24.60;62.30;;;;;;10324768;28;20065;-59
2023/06/26 08:42:09;;;;;;;4.22;3.20;;;24.60;62.20;;;;;;10311019;28;20430;-60
2023/06/26 08:47:12;;;;;;;3.83;2.70;;;24.60;62.10;;;;;;10325024;28;20120;-60
2023/06/26 08:53:20;;;;;;;3.97;3.33;;;24.70;62.10;;;;;;10323673;28;20026;-60
2023/06/26 08:58:21;;;;;;;6.60;3.33;;;24.70;62.10;;;;;;10159516;29;20020;-60
2023/06/26 09:03:22;;;;;;;4.03;3.00;;;24.70;62.10;;;;;;10278387;28;20486;-60
2023/06/26 09:08:23;;;;;;;3.53;2.85;;;24.70;62.00;;;;;;10322034;28;20081;-61
2023/06/26 09:13:24;;;;;;;3.85;2.88;;;24.70;62.00;;;;;;10322219;28;20753;-61
2023/06/26 09:18:25;;;;;;;4.25;3.08;;;24.70;61.80;;;;;;10322360;28;20022;-59
2023/06/26 09:23:26;;;;;;;3.67;3.03;;;24.70;61.70;;;;;;10323248;28;20027;-59
2023/06/26 09:28:27;;;;;;;3.67;3.08;;;24.70;61.70;;;;;;10322923;28;20096;-60
2023/06/26 09:33:27;;;;;;;4.18;2.75;;;24.70;61.60;;;;;;10322618;28;20033;-60
2023/06/26 09:38:28;;;;;;;3.92;2.70;;;24.70;61.70;;;;;;10321023;28;20506;-59
2023/06/26 09:43:30;;;;;;;3.45;2.25;;;24.70;61.60;;;;;;10309201;28;20022;-59
2023/06/26 09:48:31;;;;;;;4.05;2.90;;;24.70;61.60;;;;;;10320731;28;20074;-60
2023/06/26 09:53:36;;;;;;;3.22;2.35;;;24.70;61.50;;;;;;10311804;28;20035;-61
2023/06/26 09:58:37;;;;;;;3.15;2.42;;;24.70;61.60;;;;;;10313443;28;20026;-59
2023/06/26 10:03:38;;;;;;;3.15;2.25;;;24.70;61.40;;;;;;10322113;28;20014;-60
2023/06/26 10:08:41;;;;;;;3.78;2.60;;;24.70;61.40;;;;;;10315939;28;20088;-61
2023/06/26 10:13:46;;;;;;;4.28;2.85;;;24.70;61.40;;;;;;10317980;28;20105;-60
2023/06/26 10:18:48;;;;;;;3.25;2.45;;;24.70;61.20;;;;;;10303171;28;20109;-58
2023/06/26 10:23:52;;;;;;;3.80;2.50;;;24.70;61.10;;;;;;10321431;28;20474;-60
2023/06/26 10:28:54;;;;;;;4.60;2.30;;;24.70;60.90;;;;;;10308427;28;20034;-60
2023/06/26 10:33:55;;;;;;;3.15;2.30;;;24.80;60.90;;;;;;10320912;28;20219;-60
2023/06/26 10:39:01;;;;;;;3.33;2.15;;;24.80;60.70;;;;;;10327940;28;20050;-60
2023/06/26 10:44:02;;;;;;;4.05;1.92;;;24.80;60.50;;;;;;10304049;28;20034;-61
2023/06/26 10:49:03;;;;;;;3.53;2.10;;;24.80;60.30;;;;;;10328984;28;20041;-61
2023/06/26 10:54:03;;;;;;;2.75;2.00;;;24.80;60.30;;;;;;10311100;28;20118;-60
2023/06/26 10:59:19;;;;;;;3.17;2.55;;;24.80;60.10;;;;;;10328555;28;20591;-60
2023/06/26 11:04:46;;;;;;;4.72;2.63;;;24.80;60.20;;;;;;10326220;28;20132;-60
2023/06/26 11:10:11;;;;;;;2.95;1.90;;;24.90;60.10;;;;;;10326979;28;20697;-60
2023/06/26 11:15:14;;;;;;;3.90;2.00;;;24.90;60.00;;;;;;10298710;28;20073;-59
2023/06/26 11:20:17;;;;;;;3.58;1.92;;;24.90;60.00;;;;;;10326509;28;20014;-60
2023/06/26 11:25:20;;;;;;;2.55;1.80;;;24.90;59.80;;;;;;10324602;28;20030;-61
2023/06/26 11:30:25;;;;;;;4.00;2.08;;;24.90;59.80;;;;;;10325837;28;20022;-61
2023/06/26 11:35:30;;;;;;;2.33;2.08;;;24.90;59.70;;;;;;10326260;28;20050;-60
2023/06/26 11:40:36;;;;;;;2.92;1.88;;;24.90;59.70;;;;;;10325312;28;20050;-58
2023/06/26 11:45:37;;;;;;;3.47;1.83;;;24.90;59.60;;;;;;10324197;28;20117;-60
2023/06/26 11:50:38;;;;;;;5.70;1.73;;;24.90;59.50;;;;;;10325468;28;20022;-60
2023/06/26 11:55:43;;;;;;;2.72;1.83;;;24.90;59.50;;;;;;10325099;28;20470;-60
2023/06/26 12:00:43;;;;;;;2.42;1.98;;;24.90;59.30;;;;;;10326663;28;20113;-60
2023/06/26 12:05:44;;;;;;;3.60;2.10;;;24.90;59.10;;;;;;10322240;28;20576;-60
2023/06/26 12:10:45;;;;;;;3.05;1.70;;;24.90;59.30;;;;;;10322183;28;20041;-60
2023/06/26 12:15:46;;;;;;;3.17;2.00;;;25.00;59.00;;;;;;10324050;28;20038;-60
2023/06/26 12:20:47;;;;;;;3.30;1.63;;;25.00;59.00;;;;;;10324283;28;20227;-60
2023/06/26 12:25:51;;;;;;;2.13;1.45;;;25.00;58.90;;;;;;10323874;28;20168;-61
2023/06/26 12:31:21;;;;;;;2.70;1.42;;;25.00;58.60;;;;;;10324065;28;20018;-60
2023/06/26 12:36:22;;;;;;;2.35;1.77;;;24.90;58.70;;;;;;10302936;28;20050;-60
2023/06/26 12:41:26;;;;;;;2.30;1.70;;;24.90;59.00;;;;;;10307141;28;20018;-60
2023/06/26 12:46:36;;;;;;;3.10;1.50;;;25.00;58.70;;;;;;10324792;28;20026;-61
2023/06/26 12:51:36;;;;;;;2.85;1.70;;;24.90;58.60;;;;;;10323142;28;20015;-58
2023/06/26 12:56:37;;;;;;;3.10;1.35;;;25.00;58.60;;;;;;10322926;28;20561;-60
2023/06/26 13:01:38;;;;;;;3.28;1.55;;;24.90;58.40;;;;;;10324343;28;20026;-61
2023/06/26 13:06:38;;;;;;;2.08;1.52;;;25.00;58.50;;;;;;10322323;28;20678;-60
2023/06/26 13:11:39;;;;;;;2.05;1.30;;;25.00;58.70;;;;;;10322492;28;20085;-61
2023/06/26 13:16:40;;;;;;;2.20;1.13;;;24.90;58.40;;;;;;10321921;28;20506;-59
2023/06/26 13:21:41;;;;;;;2.28;1.52;;;24.90;58.40;;;;;;10323562;28;20400;-59
2023/06/26 13:26:42;;;;;;;2.20;1.40;;;24.90;58.40;;;;;;10322616;28;20042;-60
2023/06/26 13:31:43;;;;;;;2.20;1.23;;;24.90;58.10;;;;;;10321753;28;20042;-59
2023/06/26 13:36:44;;;;;;;2.00;1.45;;;24.90;58.30;;;;;;10321084;28;20125;-60
2023/06/26 13:41:45;;;;;;;2.00;1.60;;;24.90;58.20;;;;;;10322857;28;20492;-60
2023/06/26 13:46:45;;;;;;;2.35;1.30;;;24.90;58.10;;;;;;10321537;28;20030;-59
2023/06/26 13:51:48;;;;;;;3.30;1.25;;;24.90;57.80;;;;;;10321014;28;20105;-58
2023/06/26 13:56:48;;;;;;;1.92;1.02;;;24.80;58.20;;;;;;10322360;28;20733;-60
2023/06/26 14:01:49;;;;;;;2.53;1.35;;;24.80;58.40;;;;;;10304460;28;20092;-59
2023/06/26 14:06:50;;;;;;;2.63;1.25;;;24.80;58.30;;;;;;10321498;28;20228;-59
2023/06/26 14:11:50;;;;;;;1.60;1.20;;;24.80;58.00;;;;;;10321095;28;20026;-59
2023/06/26 14:16:51;;;;;;;3.08;1.10;;;24.80;57.80;;;;;;10320228;28;20474;-60
2023/06/26 14:21:52;;;;;;;1.48;1.00;;;24.80;58.20;;;;;;10320191;28;20018;-60
2023/06/26 14:26:53;;;;;;;1.83;1.10;;;24.80;58.10;;;;;;10321888;28;20113;-59
2023/06/26 14:31:54;;;;;;;2.17;1.00;;;24.80;58.10;;;;;;10319837;28;20021;-60
2023/06/26 14:36:54;;;;;;;1.33;1.23;;;24.80;58.00;;;;;;10321122;28;20465;-59
2023/06/26 14:41:55;;;;;;;1.65;1.02;;;24.90;58.00;;;;;;10320965;28;20311;-59
2023/06/26 14:46:56;;;;;;;2.63;1.67;;;24.80;57.60;;;;;;10319370;28;20840;-60
2023/06/26 14:51:56;;;;;;;2.17;1.45;;;24.80;57.90;;;;;;10320397;28;20038;-59
2023/06/26 14:56:57;;;;;;;2.50;1.30;;;24.80;58.00;;;;;;10319779;28;20666;-59
2023/06/26 15:01:58;;;;;;;2.08;0.90;;;24.80;57.80;;;;;;10320561;28;20065;-58
2023/06/26 15:06:59;;;;;;;1.75;1.05;;;24.80;57.90;;;;;;10319327;28;20437;-58
2023/06/26 15:11:59;;;;;;;1.35;1.00;;;24.80;57.90;;;;;;10319316;28;20319;-59
2023/06/26 15:17:00;;;;;;;1.48;1.15;;;24.80;57.90;;;;;;10319931;28;20106;-60
2023/06/26 15:22:01;;;;;;;1.08;0.90;;;24.80;57.60;;;;;;10322999;28;20035;-60
2023/06/26 15:27:02;;;;;;;1.52;1.20;;;24.80;57.70;;;;;;10326326;28;20286;-59
2023/06/26 15:32:03;;;;;;;1.40;1.20;;;24.80;57.50;;;;;;10326990;28;20057;-57
2023/06/26 15:37:04;;;;;;;2.53;1.13;;;24.80;57.50;;;;;;10310028;28;20074;-60
2023/06/26 15:42:06;;;;;;;3.15;1.35;;;24.80;58.00;;;;;;10316201;28;20666;-62
2023/06/26 15:47:06;;;;;;;1.15;0.88;;;24.80;57.60;;;;;;10327546;28;20056;-59
2023/06/26 15:52:07;;;;;;;3.90;1.55;;;24.80;57.50;;;;;;10328877;28;20018;-62
2023/06/26 15:57:08;;;;;;;8.13;3.90;;;24.90;57.40;;;;;;10315541;28;20104;-61
2023/06/26 16:02:08;;;;;;;3.70;2.15;;;25.10;57.80;;;;;;10322653;28;20109;-61
2023/06/26 16:07:09;;;;;;;10.82;5.68;;;25.20;58.10;;;;;;10326789;28;20113;-59
2023/06/26 16:12:10;;;;;;;5.10;2.85;;;25.10;57.80;;;;;;10326625;28;20007;-61
2023/06/26 16:17:11;;;;;;;15.80;4.90;;;25.00;57.80;;;;;;10310447;28;20058;-61
2023/06/26 16:22:11;;;;;;;9.88;3.25;;;25.00;61.70;;;;;;10327437;28;20113;-59
2023/06/26 16:27:12;;;;;;;10.48;2.47;;;25.00;61.00;;;;;;10313634;28;20410;-57
2023/06/26 16:32:13;;;;;;;8.63;2.45;;;25.10;58.40;;;;;;10325200;28;20022;-59
2023/06/26 16:37:13;;;;;;;8.10;1.85;;;25.10;56.90;;;;;;10325757;28;20081;-58
2023/06/26 16:42:15;;;;;;;9.75;2.17;;;25.10;56.00;;;;;;10327080;28;20026;-61
2023/06/26 16:47:17;;;;;;;12.57;1.95;;;25.20;54.60;;;;;;10326947;28;20054;-61
2023/06/26 16:52:17;;;;;;;8.02;2.13;;;25.20;54.70;;;;;;10324738;28;20141;-60
2023/06/26 16:57:18;;;;;;;5.30;2.03;;;25.20;53.80;;;;;;10325210;28;20026;-58
2023/06/26 17:02:19;;;;;;;8.50;2.42;;;25.10;53.30;;;;;;10321620;28;20049;-59
2023/06/26 17:07:21;;;;;;;7.57;1.58;;;25.10;53.10;;;;;;10322145;28;20051;-62
2023/06/26 17:12:22;;;;;;;6.70;2.10;;;25.00;53.70;;;;;;10321908;28;20022;-55
2023/06/26 17:17:23;;;;;;;9.15;1.98;;;24.90;53.00;;;;;;10323559;28;20134;-59
2023/06/26 17:22:23;;;;;;;7.97;1.70;;;24.90;54.10;;;;;;10324244;28;20018;-60
2023/06/26 17:27:27;;;;;;;6.75;2.05;;;24.80;52.30;;;;;;10323358;28;20125;-60
2023/06/26 17:32:28;;;;;;;6.20;1.80;;;24.80;52.40;;;;;;10322886;28;20014;-58
2023/06/26 17:37:28;;;;;;;5.53;1.45;;;24.80;51.70;;;;;;10331475;28;20058;-59
2023/06/26 17:42:29;;;;;;;6.88;1.40;;;24.80;52.10;;;;;;10324760;28;20113;-59
2023/06/26 17:47:30;;;;;;;3.03;1.27;;;24.80;52.20;;;;;;10320854;28;20034;-59
2023/06/26 17:52:30;;;;;;;7.18;2.33;;;24.80;51.90;;;;;;10315775;28;20098;-60
2023/06/26 17:57:31;;;;;;;7.47;1.95;;;24.80;50.90;;;;;;10323986;28;20208;-59
2023/06/26 18:02:32;;;;;;;12.00;2.67;;;24.80;50.10;;;;;;10323164;28;20441;-61
2023/06/26 18:07:33;;;;;;;6.18;2.17;;;24.80;50.50;;;;;;10320629;28;20023;-59
2023/06/26 18:12:34;;;;;;;11.18;1.70;;;24.80;50.20;;;;;;10318861;28;20029;-60
2023/06/26 18:17:35;;;;;;;9.45;1.80;;;24.80;50.40;;;;;;10320853;28;20514;-59
2023/06/26 18:22:36;;;;;;;8.05;2.03;;;24.70;50.40;;;;;;10317077;28;20034;-59
2023/06/26 18:27:40;;;;;;;4.05;1.63;;;24.70;50.40;;;;;;10314151;28;20027;-60
2023/06/26 18:32:43;;;;;;;7.97;1.65;;;24.60;50.40;;;;;;10304287;28;20106;-61
2023/06/26 18:37:44;;;;;;;7.07;1.67;;;24.60;51.20;;;;;;10320501;28;20105;-59
2023/06/26 18:42:46;;;;;;;7.72;1.75;;;24.60;51.70;;;;;;10320340;28;20060;-59
2023/06/26 18:47:47;;;;;;;4.00;1.50;;;24.60;52.10;;;;;;10319401;28;20022;-59
2023/06/26 18:52:48;;;;;;;3.58;1.50;;;24.60;52.00;;;;;;10320620;28;20097;-57
2023/06/26 18:57:49;;;;;;;4.15;1.30;;;24.60;52.20;;;;;;10326321;28;20021;-59
2023/06/26 19:02:50;;;;;;;5.13;1.50;;;24.60;52.20;;;;;;10328239;28;20018;-57
2023/06/26 19:07:52;;;;;;;4.60;1.52;;;24.60;52.10;;;;;;10327702;28;20061;-60
2023/06/26 19:12:53;;;;;;;3.47;1.67;;;24.50;52.00;;;;;;10328252;28;20730;-59
2023/06/26 19:17:54;;;;;;;4.43;1.52;;;24.50;51.60;;;;;;10311684;28;20050;-58
2023/06/26 19:22:55;;;;;;;6.40;1.60;;;24.50;50.80;;;;;;10327906;28;20105;-60
2023/06/26 19:27:56;;;;;;;5.00;1.67;;;24.50;51.20;;;;;;10327582;28;20062;-58
2023/06/26 19:32:56;;;;;;;3.60;1.45;;;24.50;51.20;;;;;;10329476;28;20021;-59
2023/06/26 19:37:57;;;;;;;6.10;1.98;;;24.50;51.60;;;;;;10308132;28;20081;-58
2023/06/26 19:42:58;;;;;;;5.25;1.92;;;24.50;50.90;;;;;;10324565;28;20450;-59
2023/06/26 19:47:58;;;;;;;5.68;2.10;;;24.50;51.50;;;;;;10328337;28;20374;-58
2023/06/26 19:52:59;;;;;;;5.10;2.22;;;24.50;51.80;;;;;;10328090;28;20022;-56
2023/06/26 19:58:00;;;;;;;5.65;1.90;;;24.40;52.00;;;;;;10325121;28;20101;-57
2023/06/26 20:03:01;;;;;;;4.60;2.10;;;24.50;52.10;;;;;;10324596;28;20031;-57
2023/06/26 20:08:02;;;;;;;3.58;1.95;;;24.40;52.20;;;;;;10323312;28;20034;-57
2023/06/26 20:13:04;;;;;;;6.72;1.83;;;24.40;52.00;;;;;;10327411;28;20545;-57
2023/06/26 20:18:05;;;;;;;5.53;1.30;;;24.40;52.20;;;;;;10326358;28;20045;-59
2023/06/26 20:23:06;;;;;;;4.28;1.65;;;24.40;52.40;;;;;;10327518;28;20026;-57
2023/06/26 20:28:07;;;;;;;3.42;1.52;;;24.40;52.50;;;;;;10327597;28;20062;-58
2023/06/26 20:33:07;;;;;;;3.10;1.50;;;24.40;52.70;;;;;;10322785;28;20026;-57
2023/06/26 20:38:08;;;;;;;6.68;1.95;;;24.30;52.80;;;;;;10323221;28;20116;-55
2023/06/26 20:43:10;;;;;;;3.72;1.58;;;24.30;53.00;;;;;;10323903;28;20105;-57
2023/06/26 20:48:11;;;;;;;1.95;1.38;;;24.30;53.10;;;;;;10325342;28;20035;-58
2023/06/26 20:53:12;;;;;;;2.35;1.30;;;24.30;53.30;;;;;;10326664;28;20101;-57
2023/06/26 20:58:13;;;;;;;3.15;1.60;;;24.30;53.40;;;;;;10324934;28;20030;-55
2023/06/26 21:03:13;;;;;;;2.22;1.20;;;24.30;53.50;;;;;;10326023;28;20022;-57
2023/06/26 21:08:14;;;;;;;5.43;1.45;;;24.30;53.70;;;;;;10326161;28;20042;-57
2023/06/26 21:13:15;;;;;;;2.17;1.17;;;24.30;53.80;;;;;;10325874;28;20025;-57
2023/06/26 21:18:16;;;;;;;2.35;1.23;;;24.20;53.80;;;;;;10317663;28;20662;-56
2023/06/26 21:23:17;;;;;;;3.50;1.15;;;24.30;54.00;;;;;;10325272;28;20597;-58
2023/06/26 21:28:18;;;;;;;2.20;1.20;;;24.20;54.10;;;;;;10325039;28;20069;-57
2023/06/26 21:33:19;;;;;;;3.25;1.23;;;24.20;54.10;;;;;;10323466;28;20029;-58
2023/06/26 21:38:19;;;;;;;1.90;1.20;;;24.20;54.20;;;;;;10323293;28;20508;-59
2023/06/26 21:43:20;;;;;;;1.73;0.90;;;24.20;54.20;;;;;;10323027;28;20061;-57
2023/06/26 21:48:21;;;;;;;2.90;1.30;;;24.20;54.40;;;;;;10323280;28;20108;-58
2023/06/26 21:53:22;;;;;;;2.75;1.75;;;24.20;54.40;;;;;;10324557;28;20513;-58
2023/06/26 21:58:23;;;;;;;2.15;1.42;;;24.20;54.40;;;;;;10324110;28;20030;-60
2023/06/26 22:03:23;;;;;;;2.72;1.20;;;24.20;55.10;;;;;;10313814;28;20793;-58
2023/06/26 22:08:24;;;;;;;2.13;1.17;;;24.20;54.50;;;;;;10306453;28;20030;-56
2023/06/26 22:13:27;;;;;;;2.75;1.73;;;24.20;54.60;;;;;;10322305;28;20025;-58
2023/06/26 22:18:27;;;;;;;2.05;1.48;;;24.20;54.60;;;;;;10323828;28;20027;-58
2023/06/26 22:23:28;;;;;;;2.88;1.73;;;24.20;54.70;;;;;;10322507;28;20029;-59
2023/06/26 22:28:28;;;;;;;2.78;1.55;;;24.20;54.80;;;;;;10323652;28;20102;-58
2023/06/26 22:33:29;;;;;;;3.22;1.60;;;24.20;55.40;;;;;;10330670;28;20018;-57
2023/06/26 22:38:30;;;;;;;3.47;1.63;;;24.20;54.80;;;;;;10331677;28;20155;-58
2023/06/26 22:43:31;;;;;;;2.85;1.50;;;24.10;54.90;;;;;;10318773;28;20482;-58
2023/06/26 22:48:31;;;;;;;2.63;1.58;;;24.10;55.00;;;;;;10319416;28;20041;-56
2023/06/26 22:53:32;;;;;;;2.67;1.63;;;24.10;55.00;;;;;;10320841;28;20670;-59
2023/06/26 22:58:33;;;;;;;1.92;1.50;;;24.10;55.00;;;;;;10321184;28;20018;-56
2023/06/26 23:03:34;;;;;;;2.97;1.73;;;24.10;55.10;;;;;;10330955;28;20018;-58
2023/06/26 23:08:35;;;;;;;2.30;1.25;;;24.00;55.00;;;;;;10330695;28;20694;-59
2023/06/26 23:13:36;;;;;;;2.38;1.20;;;24.00;55.10;;;;;;10324476;28;20034;-56
2023/06/26 23:18:37;;;;;;;3.13;1.70;;;24.00;55.00;;;;;;10325552;28;20058;-58
2023/06/26 23:23:37;;;;;;;2.92;1.52;;;24.00;55.00;;;;;;10326396;28;20027;-58
2023/06/26 23:28:38;;;;;;;2.58;1.60;;;24.00;55.10;;;;;;10327702;28;20110;-58
2023/06/26 23:33:41;;;;;;;2.95;1.40;;;24.00;55.10;;;;;;10328205;28;20018;-58
2023/06/26 23:38:42;;;;;;;2.03;1.38;;;24.00;55.00;;;;;;10329292;28;20045;-58
2023/06/26 23:43:43;;;;;;;2.55;1.20;;;24.00;55.00;;;;;;10327515;28;20041;-58
2023/06/26 23:48:44;;;;;;;3.00;1.45;;;24.00;55.00;;;;;;10318930;28;20389;-59
2023/06/26 23:53:44;;;;;;;3.50;2.28;;;24.00;55.00;;;;;;10303318;28;20015;-58
2023/06/26 23:58:45;;;;;;;3.42;1.90;;;24.00;55.00;;;;;;10320001;28;20069;-58
